Flatbush, Canada
Current Conditions -  °F | °C
As of 6:33 AM on Wednesday 22 Oct 2014 (Local Time) from CYZH Reporting Station
Haze Haze  
Wind Chill: 31°   Ceiling: 23000
Heat Index: 36°   Visibility: 1.2mi
Dew Point: 34°   Wind: 6mph
Humidity: 93%   Direction: 130°SE
Pressure: 29.63"   Gusts: NA
Location:  54.68°N, 114.15°W
Report Text: CYZH 221233Z AUTO 13005KT 1 1/4SM BR OVC230 02/01 A2963 RMK SLP052
Loading
Personal Weather Stations






























Interactive Weather Map
Tropical Storm Tracking
New forecast layout! Learn more

10-Day Weather Forecast

Advertisements
Track Severe Weather on mobile